West Point, NE

12:07 AM CST on December 27, 2014 (GMT -0600)
Stefan Memorial | Change Station
CLOSE
Current Station
Airport
Location: Norfolk,
Elevation: 1549 ft
Nearby Weather Stations
Active Advisory: Winter Weather Advisory

Elev 1549 ft 41.99 °N, 97.44 °W | Updated 11 minutes ago

Snow
Snow
23 °F
Feels Like 11 °F
N
14
Wind Variable Wind from NW

Today
High -- | Low -- °F
--% Chance of Precip.
Yesterday
High -- | Low -- °F
Precip. -- in
7:53 AM 5:02 PM
Waxing Crescent, 33% visible
Pressure 30.15 in
Visibility 1.2 miles
Clouds Overcast 1500 ft
Windchill 11 °F
Dew Point 20 °F
Humidity 88%
Rainfall 0.13 in
Snow Depth Not available.
UV 0 out of 12
Pollen .10 out of 12
Air Quality Not available.
Flu Activity Not available.
METAR KOFK 270556Z AUTO 32012KT 1 1/4SM -SN BR OVC015 M05/M07 A3009 RMK AO2 SLP210 P0003 60013 I6000 T10501067 11033 21050 400061050 53007

More Conditions Fewer Conditions

Pressure 30.15 in
Visibility 1.2 miles
Clouds Overcast 1500 ft
Windchill 11 °F
Dew Point 20 °F
Humidity 88%
Rainfall 0.13 in
Snow Depth Not available.
UV 0 out of 12
Pollen .10 out of 12
Air Quality Not available.
Flu Activity Not available.
METAR KOFK 270556Z AUTO 32012KT 1 1/4SM -SN BR OVC015 M05/M07 A3009 RMK AO2 SLP210 P0003 60013 I6000 T10501067 11033 21050 400061050 53007

More Conditions Fewer Conditions

10-Day Weather Forecast

Almanac

Astronomy

Dec. 27, 2014 Rise Set
Actual Time
Civil Twilight
Nautical Twilight
Astronomical Twilight
Moon
Length of Visible Light
Length of Day
Tomorrow will be .
, % of the Moon is Illuminated

Today's Extremes

State Highs State Lows

Community

WunderPhotos

Upload Photos

1,780,853 photos uploaded!

WunderBlogs® & News

Nearby

Air Quality

  Air Quality AQ Index Pollutant
Not available.

Snow Depth

Station Depth Elevation

Earthquake Activity

City Distance Mag. Time & Date
Minimum magnitude displayed is 2.5.

Coastal Water Temperatures

Place Temperature

Nearby Weather Stations